createdAt,value
2019-01-22T00:00:46.062Z,0.00
2019-01-22T00:01:46.065Z,0.00
2019-01-22T00:02:46.069Z,0.00
2019-01-22T00:03:46.078Z,0.00
2019-01-22T00:04:46.083Z,0.00
2019-01-22T00:05:46.086Z,0.00
2019-01-22T00:06:46.091Z,0.00
2019-01-22T00:07:46.096Z,0.00
2019-01-22T00:08:46.101Z,0.00
2019-01-22T00:09:46.108Z,0.00
2019-01-22T00:10:46.112Z,0.00
2019-01-22T00:11:46.118Z,0.00
2019-01-22T00:12:46.122Z,0.00
2019-01-22T00:13:46.138Z,0.00
2019-01-22T00:14:46.133Z,0.00
2019-01-22T00:15:46.138Z,0.00
2019-01-22T00:16:46.146Z,0.00
2019-01-22T00:17:46.151Z,0.00
2019-01-22T00:18:46.153Z,0.00
2019-01-22T00:19:46.161Z,0.00
2019-01-22T00:20:46.166Z,0.00
2019-01-22T00:21:46.172Z,0.00
2019-01-22T00:22:46.179Z,0.00
2019-01-22T00:23:46.179Z,0.00
2019-01-22T00:24:46.187Z,0.00
2019-01-22T00:25:46.191Z,0.00
2019-01-22T00:26:46.196Z,0.00
2019-01-22T00:27:46.202Z,0.00
2019-01-22T00:28:46.235Z,0.00
2019-01-22T00:29:46.214Z,0.00
2019-01-22T00:30:46.217Z,0.00
2019-01-22T00:31:46.223Z,0.00
2019-01-22T00:32:46.228Z,0.00
2019-01-22T00:33:46.235Z,0.00
2019-01-22T00:34:46.238Z,0.00
2019-01-22T00:35:46.244Z,0.00
2019-01-22T00:36:46.249Z,0.00
2019-01-22T00:37:46.255Z,0.00
2019-01-22T00:38:46.261Z,0.00
2019-01-22T00:39:46.265Z,0.00
2019-01-22T00:40:46.276Z,0.00
2019-01-22T00:41:46.279Z,0.00
2019-01-22T00:42:46.280Z,0.00
2019-01-22T00:43:46.287Z,0.00
2019-01-22T00:44:46.291Z,0.00
2019-01-22T00:45:46.298Z,0.00
2019-01-22T00:46:46.301Z,0.00
2019-01-22T00:47:46.307Z,0.00
2019-01-22T00:48:46.314Z,0.00
2019-01-22T00:49:46.319Z,0.00
2019-01-22T00:50:46.322Z,0.00
2019-01-22T00:51:46.328Z,0.00
2019-01-22T00:52:46.333Z,0.00
2019-01-22T00:53:46.342Z,0.00
2019-01-22T00:54:46.343Z,0.00
2019-01-22T00:55:46.348Z,0.00
2019-01-22T00:56:46.355Z,0.00
2019-01-22T00:57:46.360Z,0.00
2019-01-22T00:58:46.365Z,0.00
2019-01-22T00:59:46.664Z,0.00
2019-01-22T01:00:46.376Z,0.00
2019-01-22T01:01:46.381Z,0.00
2019-01-22T01:02:46.385Z,0.00
2019-01-22T01:03:46.397Z,0.00
2019-01-22T01:04:46.397Z,0.00
2019-01-22T01:05:46.402Z,0.00
2019-01-22T01:06:46.408Z,0.00
2019-01-22T01:07:46.411Z,0.00
2019-01-22T01:08:46.416Z,0.00
2019-01-22T01:09:46.423Z,0.00
2019-01-22T01:10:46.428Z,0.00
2019-01-22T01:11:46.432Z,0.00
2019-01-22T01:12:46.439Z,0.00
2019-01-22T01:13:46.443Z,0.00
2019-01-22T01:14:46.453Z,0.00
2019-01-22T01:15:46.457Z,0.00
2019-01-22T01:16:46.460Z,0.00
2019-01-22T01:17:46.463Z,0.00
2019-01-22T01:18:46.469Z,0.00
2019-01-22T01:19:46.477Z,0.00
2019-01-22T01:20:46.480Z,0.00
2019-01-22T01:21:46.486Z,0.00
2019-01-22T01:22:46.490Z,0.00
2019-01-22T01:23:46.498Z,0.00
2019-01-22T01:24:46.501Z,0.00
2019-01-22T01:25:46.506Z,0.00
2019-01-22T01:26:46.510Z,0.00
2019-01-22T01:27:46.516Z,0.00
2019-01-22T01:28:46.523Z,0.00
2019-01-22T01:29:46.527Z,0.00
2019-01-22T01:30:46.531Z,0.00
2019-01-22T01:31:46.537Z,0.00
2019-01-22T01:32:46.544Z,0.00
2019-01-22T01:33:46.549Z,0.00
2019-01-22T01:34:46.553Z,0.00
2019-01-22T01:35:46.558Z,0.00
2019-01-22T01:36:46.563Z,0.00
2019-01-22T01:37:46.571Z,0.00
2019-01-22T01:38:46.575Z,0.00
2019-01-22T01:39:46.579Z,0.00
2019-01-22T01:40:46.586Z,0.00
2019-01-22T01:41:46.590Z,0.00
2019-01-22T01:42:46.595Z,0.00
2019-01-22T01:43:46.601Z,0.00
2019-01-22T01:44:46.606Z,0.00
2019-01-22T01:45:46.612Z,0.00
2019-01-22T01:46:46.614Z,0.00
2019-01-22T01:47:46.626Z,0.00
2019-01-22T01:48:46.625Z,0.00
2019-01-22T01:49:46.632Z,0.00
2019-01-22T01:50:46.637Z,0.00
2019-01-22T01:51:46.642Z,0.00
2019-01-22T01:52:46.646Z,0.00
2019-01-22T01:53:46.653Z,0.00
2019-01-22T01:54:46.657Z,0.00
2019-01-22T01:55:46.663Z,0.00
2019-01-22T01:56:46.679Z,0.00
2019-01-22T01:57:46.674Z,0.00
2019-01-22T01:58:46.678Z,0.00
2019-01-22T01:59:46.683Z,0.00
2019-01-22T02:00:46.734Z,0.00
2019-01-22T02:01:46.694Z,0.00
2019-01-22T02:02:46.700Z,0.00
2019-01-22T02:03:46.707Z,0.00
2019-01-22T02:04:46.714Z,0.00
2019-01-22T02:05:46.714Z,0.00
2019-01-22T02:06:46.720Z,0.00
2019-01-22T02:07:46.730Z,0.00
2019-01-22T02:08:46.730Z,0.00
2019-01-22T02:09:46.738Z,0.00
2019-01-22T02:10:46.741Z,0.00
2019-01-22T02:11:46.747Z,0.00
2019-01-22T02:12:46.751Z,0.00
2019-01-22T02:13:46.765Z,0.00
2019-01-22T02:14:46.761Z,0.00
2019-01-22T02:15:46.767Z,0.00
2019-01-22T02:16:46.772Z,0.00
2019-01-22T02:17:46.778Z,0.00
2019-01-22T02:18:46.782Z,0.00
2019-01-22T02:19:46.788Z,0.00
2019-01-22T02:20:46.793Z,0.00
2019-01-22T02:21:46.799Z,0.00
2019-01-22T02:22:46.802Z,0.00
2019-01-22T02:23:46.845Z,0.00
2019-01-22T02:24:46.815Z,0.00
2019-01-22T02:25:46.820Z,0.00
2019-01-22T02:26:46.825Z,0.00
2019-01-22T02:27:46.829Z,0.00
2019-01-22T02:28:46.833Z,0.00
2019-01-22T02:29:46.840Z,0.00
2019-01-22T02:30:46.845Z,0.00
2019-01-22T02:31:46.851Z,0.00
2019-01-22T02:32:46.855Z,0.00
2019-01-22T02:33:46.860Z,0.00
2019-01-22T02:34:46.887Z,0.00
2019-01-22T02:35:46.878Z,0.00
2019-01-22T02:36:46.877Z,0.00
2019-01-22T02:37:46.880Z,0.00
2019-01-22T02:38:46.886Z,0.00
2019-01-22T02:39:46.891Z,0.00
2019-01-22T02:40:46.899Z,0.00
2019-01-22T02:41:46.910Z,0.00
2019-01-22T02:42:46.907Z,0.00
2019-01-22T02:43:46.914Z,0.00
2019-01-22T02:44:46.919Z,0.00
2019-01-22T02:45:46.923Z,0.00
2019-01-22T02:46:46.929Z,0.00
2019-01-22T02:47:46.932Z,0.00
2019-01-22T02:48:46.939Z,0.00
2019-01-22T02:49:46.950Z,0.00
2019-01-22T02:50:46.947Z,0.00
2019-01-22T02:51:46.952Z,0.00
2019-01-22T02:52:46.958Z,0.00
2019-01-22T02:53:47.068Z,0.00
2019-01-22T02:54:46.970Z,0.00
2019-01-22T02:55:46.974Z,0.00
2019-01-22T02:56:46.983Z,0.00
2019-01-22T02:57:46.983Z,0.00
2019-01-22T02:58:46.989Z,0.00
2019-01-22T02:59:46.995Z,0.00
2019-01-22T03:00:47.000Z,0.00
2019-01-22T03:01:47.005Z,0.00
2019-01-22T03:02:47.011Z,0.00
2019-01-22T03:03:47.015Z,0.00
2019-01-22T03:04:47.021Z,0.00
2019-01-22T03:05:47.026Z,0.00
2019-01-22T03:06:47.032Z,0.00
2019-01-22T03:07:47.034Z,0.00
2019-01-22T03:08:47.999Z,0.00
2019-01-22T03:09:47.046Z,0.00
2019-01-22T03:10:47.051Z,0.00
2019-01-22T03:11:47.059Z,0.00
2019-01-22T03:12:47.060Z,0.00
2019-01-22T03:13:47.065Z,0.00
2019-01-22T03:14:47.071Z,0.00
2019-01-22T03:15:47.082Z,0.00
2019-01-22T03:16:47.082Z,0.00
2019-01-22T03:17:47.088Z,0.00
2019-01-22T03:18:47.092Z,0.00
2019-01-22T03:19:47.097Z,0.00
2019-01-22T03:20:47.104Z,0.00
2019-01-22T03:21:47.108Z,0.00
2019-01-22T03:22:47.113Z,0.00
2019-01-22T03:23:47.117Z,0.00
2019-01-22T03:24:47.122Z,0.00
2019-01-22T03:25:47.129Z,0.00
2019-01-22T03:26:47.134Z,0.00
2019-01-22T03:27:47.149Z,0.00
2019-01-22T03:28:47.142Z,0.00
2019-01-22T03:29:47.151Z,0.00
2019-01-22T03:30:47.157Z,0.00
2019-01-22T03:31:47.185Z,0.00
2019-01-22T03:32:47.164Z,0.00
2019-01-22T03:33:47.170Z,0.00
2019-01-22T03:34:47.174Z,0.00
2019-01-22T03:35:47.181Z,0.00
2019-01-22T03:36:47.185Z,0.00
2019-01-22T03:37:47.191Z,0.00
2019-01-22T03:38:47.195Z,0.00
2019-01-22T03:39:47.199Z,0.00
2019-01-22T03:40:47.206Z,0.00
2019-01-22T03:41:47.211Z,0.00
2019-01-22T03:42:47.215Z,0.00
2019-01-22T03:43:47.228Z,0.00
2019-01-22T03:44:47.225Z,0.00
2019-01-22T03:45:47.235Z,0.00
2019-01-22T03:46:47.236Z,0.00
2019-01-22T03:47:47.241Z,0.00
2019-01-22T03:48:47.247Z,0.00
2019-01-22T03:49:47.251Z,0.00
2019-01-22T03:50:47.261Z,0.00
2019-01-22T03:51:47.262Z,0.00
2019-01-22T03:52:47.269Z,0.00
2019-01-22T03:53:53.519Z,0.00
2019-01-22T03:54:47.286Z,0.00
2019-01-22T03:55:47.282Z,0.00
2019-01-22T03:56:47.287Z,0.00
2019-01-22T03:57:48.714Z,0.00
2019-01-22T03:58:47.298Z,0.00
2019-01-22T03:59:47.303Z,0.00
2019-01-22T04:00:47.307Z,0.00
2019-01-22T04:01:47.316Z,0.00
2019-01-22T04:02:47.321Z,0.00
2019-01-22T04:03:47.323Z,0.00
2019-01-22T04:04:47.328Z,0.00
2019-01-22T04:05:47.334Z,0.00
2019-01-22T04:06:47.338Z,0.00
2019-01-22T04:07:47.343Z,0.00
2019-01-22T04:08:47.348Z,0.00
2019-01-22T04:09:47.356Z,0.00
2019-01-22T04:10:47.365Z,0.00
2019-01-22T04:11:47.364Z,0.00
2019-01-22T04:12:47.368Z,0.00
2019-01-22T04:13:47.375Z,0.00
2019-01-22T04:14:47.379Z,0.00
2019-01-22T04:15:47.384Z,0.00
2019-01-22T04:16:47.390Z,0.00
2019-01-22T04:17:47.397Z,0.00
2019-01-22T04:18:47.398Z,0.00
2019-01-22T04:19:47.407Z,0.00
2019-01-22T04:20:47.410Z,0.00
2019-01-22T04:21:47.430Z,0.00
2019-01-22T04:22:47.420Z,0.00
2019-01-22T04:23:47.425Z,0.00
2019-01-22T04:24:47.434Z,0.00
2019-01-22T04:25:47.436Z,0.00
2019-01-22T04:26:47.447Z,0.00
2019-01-22T04:27:47.447Z,0.00
2019-01-22T04:28:47.452Z,0.00
2019-01-22T04:29:47.459Z,0.00
2019-01-22T04:30:47.462Z,0.00
2019-01-22T04:31:47.465Z,0.00
2019-01-22T04:32:47.473Z,0.00
2019-01-22T04:33:47.477Z,0.00
2019-01-22T04:34:47.482Z,0.00
2019-01-22T04:35:47.488Z,0.00
2019-01-22T04:36:47.492Z,0.00
2019-01-22T04:37:47.499Z,0.00
2019-01-22T04:38:47.502Z,0.00
2019-01-22T04:39:47.508Z,0.00
2019-01-22T04:40:47.514Z,0.00
2019-01-22T04:41:47.520Z,0.00
2019-01-22T04:42:47.534Z,0.00
2019-01-22T04:43:47.573Z,0.00
2019-01-22T04:44:47.534Z,0.00
2019-01-22T04:45:47.540Z,0.00
2019-01-22T04:46:47.544Z,0.00
2019-01-22T04:47:47.547Z,0.00
2019-01-22T04:48:47.555Z,0.00
2019-01-22T04:49:47.560Z,0.00
2019-01-22T04:50:47.565Z,0.00
2019-01-22T04:51:47.573Z,0.00
2019-01-22T04:52:47.576Z,0.00
2019-01-22T04:53:47.580Z,0.00
2019-01-22T04:54:47.587Z,0.00
2019-01-22T04:55:47.589Z,0.00
2019-01-22T04:56:47.622Z,0.00
2019-01-22T04:57:47.601Z,0.00
2019-01-22T04:58:47.604Z,0.00
2019-01-22T04:59:47.616Z,0.00
2019-01-22T05:00:47.617Z,0.00
2019-01-22T05:01:47.627Z,0.00
2019-01-22T05:02:47.624Z,0.00
2019-01-22T05:03:47.629Z,0.00
2019-01-22T05:04:47.637Z,0.00
2019-01-22T05:05:47.641Z,0.00
2019-01-22T05:06:47.646Z,0.00
2019-01-22T05:07:47.649Z,0.00
2019-01-22T05:08:47.657Z,0.00
2019-01-22T05:09:47.663Z,0.00
2019-01-22T05:10:47.667Z,0.00
2019-01-22T05:11:47.673Z,4.00
2019-01-22T05:12:47.678Z,8.00
2019-01-22T05:13:47.681Z,8.00
2019-01-22T05:14:47.684Z,12.00
2019-01-22T05:15:47.778Z,8.00
2019-01-22T05:16:47.697Z,8.00
2019-01-22T05:17:47.704Z,8.00
2019-01-22T05:18:47.707Z,8.00
2019-01-22T05:19:47.713Z,12.00
2019-01-22T05:20:47.717Z,8.00
2019-01-22T05:21:47.722Z,8.00
2019-01-22T05:22:47.726Z,8.00
2019-01-22T05:23:47.732Z,8.00
2019-01-22T05:24:47.737Z,8.00
2019-01-22T05:25:47.742Z,8.00
2019-01-22T05:26:47.748Z,8.00
2019-01-22T05:27:47.833Z,8.00
2019-01-22T05:28:47.766Z,8.00
2019-01-22T05:29:47.770Z,8.00
2019-01-22T05:30:47.767Z,8.00
2019-01-22T05:31:47.774Z,8.00
2019-01-22T05:32:47.782Z,8.00
2019-01-22T05:33:47.784Z,8.00
2019-01-22T05:34:47.791Z,8.00
2019-01-22T05:35:47.801Z,8.00
2019-01-22T05:36:47.798Z,8.00
2019-01-22T05:37:47.807Z,8.00
2019-01-22T05:38:47.809Z,8.00
2019-01-22T05:39:47.814Z,8.00
2019-01-22T05:40:47.827Z,12.00
2019-01-22T05:41:47.826Z,12.00
2019-01-22T05:42:47.857Z,8.00
2019-01-22T05:43:47.834Z,8.00
2019-01-22T05:44:47.843Z,8.00
2019-01-22T05:45:47.845Z,8.00
2019-01-22T05:46:47.852Z,8.00
2019-01-22T05:47:47.855Z,8.00
2019-01-22T05:48:47.859Z,8.00
2019-01-22T05:49:47.864Z,8.00
2019-01-22T05:50:47.869Z,8.00
2019-01-22T05:51:47.875Z,8.00
2019-01-22T05:52:47.879Z,8.00
2019-01-22T05:53:47.885Z,8.00
2019-01-22T05:54:47.889Z,8.00
2019-01-22T05:55:47.894Z,8.00
2019-01-22T05:56:47.901Z,8.00
2019-01-22T05:57:47.905Z,8.00
2019-01-22T05:58:47.909Z,8.00
2019-01-22T05:59:48.148Z,8.00
2019-01-22T06:00:47.920Z,8.00
2019-01-22T06:01:47.925Z,12.00
2019-01-22T06:02:47.929Z,8.00
2019-01-22T06:03:47.984Z,8.00
2019-01-22T06:04:47.938Z,8.00
2019-01-22T06:05:47.946Z,8.00
2019-01-22T06:06:47.948Z,8.00
2019-01-22T06:07:47.965Z,8.00
2019-01-22T06:08:47.976Z,8.00
2019-01-22T06:09:47.966Z,8.00
2019-01-22T06:10:47.967Z,8.00
2019-01-22T06:11:47.976Z,8.00
2019-01-22T06:12:47.979Z,12.00
2019-01-22T06:13:47.983Z,12.00
2019-01-22T06:14:47.988Z,12.00
2019-01-22T06:15:47.994Z,12.00
2019-01-22T06:16:47.998Z,12.00
2019-01-22T06:17:48.004Z,12.00
2019-01-22T06:18:48.019Z,12.00
2019-01-22T06:19:48.013Z,12.00
2019-01-22T06:20:48.019Z,12.00
2019-01-22T06:21:48.028Z,12.00
2019-01-22T06:22:48.027Z,12.00
2019-01-22T06:23:48.034Z,12.00
2019-01-22T06:24:48.039Z,12.00
2019-01-22T06:25:49.680Z,12.00
2019-01-22T06:26:48.047Z,12.00
2019-01-22T06:27:48.052Z,12.00
2019-01-22T06:28:48.058Z,12.00
2019-01-22T06:29:48.064Z,12.00
2019-01-22T06:30:48.071Z,12.00
2019-01-22T06:31:48.073Z,12.00
2019-01-22T06:32:48.078Z,12.00
2019-01-22T06:33:48.084Z,8.00
2019-01-22T06:34:48.088Z,12.00
2019-01-22T06:35:48.094Z,12.00
2019-01-22T06:36:48.099Z,12.00
2019-01-22T06:37:48.103Z,12.00
2019-01-22T06:38:48.106Z,12.00
2019-01-22T06:39:48.114Z,4.00
2019-01-22T06:40:48.117Z,4.00
2019-01-22T06:41:48.123Z,4.00
2019-01-22T06:42:48.126Z,4.00
2019-01-22T06:43:48.135Z,0.00
2019-01-22T06:44:48.171Z,0.00
2019-01-22T06:45:48.143Z,0.00
2019-01-22T06:46:48.148Z,0.00
2019-01-22T06:47:48.154Z,0.00
2019-01-22T06:48:48.156Z,0.00
2019-01-22T06:49:48.163Z,4.00
2019-01-22T06:50:48.167Z,4.00
2019-01-22T06:51:48.171Z,4.00
2019-01-22T06:52:48.177Z,4.00
2019-01-22T06:53:48.183Z,4.00
2019-01-22T06:54:48.203Z,0.00
2019-01-22T06:55:48.194Z,0.00
2019-01-22T06:56:48.200Z,4.00
2019-01-22T06:57:48.204Z,4.00
2019-01-22T06:58:48.210Z,4.00
2019-01-22T06:59:48.212Z,4.00
2019-01-22T07:00:48.221Z,4.00
2019-01-22T07:01:48.223Z,4.00
2019-01-22T07:02:48.227Z,4.00
2019-01-22T07:03:48.231Z,16.00
2019-01-22T07:04:48.236Z,20.00
2019-01-22T07:05:48.243Z,16.00
2019-01-22T07:06:48.247Z,20.00
2019-01-22T07:07:48.253Z,20.00
2019-01-22T07:08:48.257Z,24.00
2019-01-22T07:09:48.261Z,24.00
2019-01-22T07:10:48.267Z,20.00
2019-01-22T07:11:48.274Z,24.00
2019-01-22T07:12:48.278Z,24.00
2019-01-22T07:13:48.281Z,28.00
2019-01-22T07:14:48.287Z,28.00
2019-01-22T07:15:48.293Z,28.00
2019-01-22T07:16:48.298Z,32.00
2019-01-22T07:17:48.303Z,28.00
2019-01-22T07:18:48.305Z,32.00
2019-01-22T07:19:48.312Z,32.00
2019-01-22T07:20:48.315Z,36.00
2019-01-22T07:21:48.324Z,36.00
2019-01-22T07:22:48.327Z,36.00
2019-01-22T07:23:48.417Z,40.00
2019-01-22T07:24:48.336Z,40.00
2019-01-22T07:25:48.342Z,40.00
2019-01-22T07:26:48.362Z,44.00
2019-01-22T07:27:48.351Z,48.00
2019-01-22T07:28:48.358Z,48.00
2019-01-22T07:29:48.362Z,48.00
2019-01-22T07:30:48.365Z,48.00
2019-01-22T07:31:48.370Z,52.00
2019-01-22T07:32:48.377Z,52.00
2019-01-22T07:33:48.381Z,52.00
2019-01-22T07:34:48.386Z,56.00
2019-01-22T07:35:48.389Z,60.00
2019-01-22T07:36:48.395Z,60.00
2019-01-22T07:37:48.400Z,60.00
2019-01-22T07:38:48.404Z,64.00
2019-01-22T07:39:48.413Z,64.00
2019-01-22T07:40:48.426Z,64.00
2019-01-22T07:41:48.422Z,68.00
2019-01-22T07:42:48.425Z,68.00
2019-01-22T07:43:48.431Z,68.00
2019-01-22T07:44:48.435Z,72.00
2019-01-22T07:45:48.441Z,72.00
2019-01-22T07:46:48.444Z,76.00
2019-01-22T07:47:48.453Z,76.00
2019-01-22T07:48:48.458Z,80.00
2019-01-22T07:49:48.460Z,80.00
2019-01-22T07:50:48.464Z,80.00
2019-01-22T07:51:48.468Z,84.00
2019-01-22T07:52:48.475Z,84.00
2019-01-22T07:53:48.479Z,84.00
2019-01-22T07:54:53.697Z,88.00
2019-01-22T07:55:48.491Z,92.00
2019-01-22T07:56:48.503Z,92.00
2019-01-22T07:57:48.499Z,92.00
2019-01-22T07:58:48.505Z,96.00
2019-01-22T07:59:48.508Z,96.00
2019-01-22T08:00:48.512Z,100.00
2019-01-22T08:01:48.519Z,100.00
2019-01-22T08:02:48.523Z,100.00
2019-01-22T08:03:48.528Z,104.00
2019-01-22T08:04:48.537Z,104.00
2019-01-22T08:05:48.539Z,108.00
2019-01-22T08:06:48.543Z,108.00
2019-01-22T08:07:48.549Z,108.00
2019-01-22T08:08:48.554Z,112.00
2019-01-22T08:09:48.559Z,116.00
2019-01-22T08:10:48.563Z,116.00
2019-01-22T08:11:48.567Z,120.00
2019-01-22T08:12:48.572Z,120.00
2019-01-22T08:13:48.578Z,120.00
2019-01-22T08:14:48.583Z,120.00
2019-01-22T08:15:48.588Z,124.00
2019-01-22T08:16:48.626Z,124.00
2019-01-22T08:17:48.599Z,128.00
2019-01-22T08:18:48.602Z,132.00
2019-01-22T08:19:48.606Z,132.00
2019-01-22T08:20:48.611Z,136.00
2019-01-22T08:21:48.619Z,136.00
2019-01-22T08:22:48.623Z,140.00
2019-01-22T08:23:48.626Z,140.00
2019-01-22T08:24:48.632Z,144.00
2019-01-22T08:25:48.638Z,144.00
2019-01-22T08:26:48.680Z,144.00
2019-01-22T08:27:48.646Z,148.00
2019-01-22T08:28:48.652Z,152.00
2019-01-22T08:29:48.658Z,148.00
2019-01-22T08:30:48.663Z,152.00
2019-01-22T08:31:48.667Z,152.00
2019-01-22T08:32:48.673Z,144.00
2019-01-22T08:33:48.676Z,148.00
2019-01-22T08:34:48.682Z,152.00
2019-01-22T08:35:48.686Z,160.00
2019-01-22T08:36:48.692Z,168.00
2019-01-22T08:37:48.697Z,168.00
2019-01-22T08:38:48.703Z,172.00
2019-01-22T08:39:48.708Z,176.00
2019-01-22T08:40:48.711Z,176.00
2019-01-22T08:41:48.718Z,180.00
2019-01-22T08:42:48.764Z,184.00
2019-01-22T08:43:48.727Z,184.00
2019-01-22T08:44:48.733Z,188.00
2019-01-22T08:45:48.736Z,192.00
2019-01-22T08:46:48.741Z,196.00
2019-01-22T08:47:48.746Z,196.00
2019-01-22T08:48:48.753Z,204.00
2019-01-22T08:49:48.756Z,200.00
2019-01-22T08:50:48.763Z,208.00
2019-01-22T08:51:48.769Z,208.00
2019-01-22T08:52:48.772Z,208.00
2019-01-22T08:53:48.777Z,216.00
2019-01-22T08:54:48.780Z,216.00
2019-01-22T08:55:48.785Z,224.00
2019-01-22T08:56:48.793Z,232.00
2019-01-22T08:57:48.797Z,232.00
2019-01-22T08:58:48.804Z,236.00
2019-01-22T08:59:48.841Z,236.00
2019-01-22T09:00:48.812Z,240.00
2019-01-22T09:01:48.816Z,248.00
2019-01-22T09:02:48.821Z,256.00
2019-01-22T09:03:48.826Z,256.00
2019-01-22T09:04:48.834Z,264.00
2019-01-22T09:05:48.837Z,276.00
2019-01-22T09:06:48.843Z,288.00
2019-01-22T09:07:48.847Z,296.00
2019-01-22T09:08:48.855Z,300.00
2019-01-22T09:09:48.856Z,300.00
2019-01-22T09:10:48.861Z,300.00
2019-01-22T09:11:48.869Z,312.00
2019-01-22T09:12:48.872Z,324.00
2019-01-22T09:13:48.887Z,336.00
2019-01-22T09:14:48.881Z,356.00
2019-01-22T09:15:48.887Z,368.00
2019-01-22T09:16:48.891Z,384.00
2019-01-22T09:17:48.896Z,396.00
2019-01-22T09:18:48.903Z,400.00
2019-01-22T09:19:48.907Z,412.00
2019-01-22T09:20:48.913Z,416.00
2019-01-22T09:21:48.916Z,436.00
2019-01-22T09:22:48.923Z,452.00
2019-01-22T09:23:48.934Z,452.00
2019-01-22T09:24:48.934Z,456.00
2019-01-22T09:25:48.938Z,472.00
2019-01-22T09:26:48.942Z,492.00
2019-01-22T09:27:48.948Z,508.00
2019-01-22T09:28:48.953Z,516.00
2019-01-22T09:29:48.961Z,512.00
2019-01-22T09:30:48.962Z,512.00
2019-01-22T09:31:48.968Z,528.00
2019-01-22T09:32:48.973Z,544.00
2019-01-22T09:33:49.725Z,712.00
2019-01-22T09:34:48.982Z,740.00
2019-01-22T09:35:48.992Z,764.00
2019-01-22T09:36:48.994Z,776.00
2019-01-22T09:37:48.999Z,784.00
2019-01-22T09:38:49.005Z,788.00
2019-01-22T09:39:49.278Z,788.00
2019-01-22T09:40:49.014Z,756.00
2019-01-22T09:41:49.021Z,740.00
2019-01-22T09:42:49.025Z,712.00
2019-01-22T09:43:49.029Z,724.00
2019-01-22T09:44:49.037Z,716.00
2019-01-22T09:45:49.039Z,708.00
2019-01-22T09:46:49.045Z,700.00
2019-01-22T09:47:49.051Z,752.00
2019-01-22T09:48:49.057Z,828.00
2019-01-22T09:49:49.061Z,884.00
2019-01-22T09:50:49.064Z,908.00
2019-01-22T09:51:49.071Z,936.00
2019-01-22T09:52:49.078Z,956.00
2019-01-22T09:53:49.081Z,988.00
2019-01-22T09:54:49.086Z,1012.00
2019-01-22T09:55:49.092Z,1040.00
2019-01-22T09:56:49.097Z,1064.00
2019-01-22T09:57:49.103Z,1092.00
2019-01-22T09:58:49.107Z,1120.00
2019-01-22T09:59:49.115Z,1156.00
2019-01-22T10:00:49.118Z,1220.00
2019-01-22T10:01:49.125Z,1316.00
2019-01-22T10:02:49.128Z,1428.00
2019-01-22T10:03:49.134Z,1560.00
2019-01-22T10:04:49.139Z,1716.00
2019-01-22T10:05:49.146Z,1888.00
2019-01-22T10:06:49.150Z,2060.00
2019-01-22T10:07:49.158Z,2192.00
2019-01-22T10:08:49.159Z,2292.00
2019-01-22T10:09:49.166Z,2380.00
2019-01-22T10:10:49.171Z,2456.00
2019-01-22T10:11:49.176Z,2536.00
2019-01-22T10:12:49.182Z,2668.00
2019-01-22T10:13:49.189Z,5732.00
2019-01-22T10:14:49.194Z,24704.00
2019-01-22T10:15:49.199Z,37376.00
2019-01-22T10:16:49.204Z,37568.00
2019-01-22T10:17:49.211Z,36640.00
2019-01-22T10:18:49.214Z,33056.00
2019-01-22T10:19:49.221Z,32288.00
2019-01-22T10:20:49.228Z,32192.00
2019-01-22T10:21:49.234Z,32320.00
2019-01-22T10:22:49.238Z,30464.00
2019-01-22T10:23:49.247Z,28864.00
2019-01-22T10:24:49.251Z,26816.00
2019-01-22T10:25:49.261Z,25696.00
2019-01-22T10:26:49.264Z,24576.00
2019-01-22T10:27:49.276Z,27360.00
2019-01-22T10:28:49.281Z,28928.00
2019-01-22T10:29:49.287Z,17824.00
2019-01-22T10:30:49.296Z,5072.00
2019-01-22T10:31:50.518Z,3668.00
2019-01-22T10:32:49.313Z,3424.00
2019-01-22T10:33:49.323Z,3096.00
2019-01-22T10:34:49.333Z,2856.00
2019-01-22T10:35:49.336Z,3056.00
2019-01-22T10:36:49.396Z,3188.00
2019-01-22T10:37:49.354Z,3728.00
2019-01-22T10:38:49.363Z,4836.00
2019-01-22T10:39:49.368Z,4800.00
2019-01-22T10:40:49.379Z,3136.00
2019-01-22T10:41:49.390Z,2716.00
2019-01-22T10:42:49.394Z,2616.00
2019-01-22T10:43:49.403Z,2392.00
2019-01-22T10:44:49.410Z,2380.00
2019-01-22T10:45:49.419Z,2484.00
2019-01-22T10:46:49.458Z,2140.00
2019-01-22T10:47:49.436Z,1964.00
2019-01-22T10:48:49.444Z,1880.00
2019-01-22T10:49:49.450Z,1800.00
2019-01-22T10:50:49.457Z,1772.00
2019-01-22T10:51:49.463Z,1672.00
2019-01-22T10:52:49.473Z,1636.00
2019-01-22T10:53:49.481Z,1560.00
2019-01-22T10:54:49.486Z,1576.00
2019-01-22T10:55:49.494Z,1584.00
2019-01-22T10:56:49.499Z,1512.00
2019-01-22T10:57:49.508Z,1500.00
2019-01-22T10:58:49.520Z,1532.00
2019-01-22T10:59:49.521Z,1696.00
2019-01-22T11:00:49.531Z,1596.00
2019-01-22T11:01:49.535Z,1960.00
2019-01-22T11:02:49.542Z,4336.00
2019-01-22T11:03:49.549Z,7536.00
2019-01-22T11:04:49.556Z,4812.00
2019-01-22T11:05:49.563Z,2956.00
2019-01-22T11:06:49.569Z,1576.00
2019-01-22T11:07:49.576Z,1416.00
2019-01-22T11:08:49.583Z,1452.00
2019-01-22T11:09:49.589Z,1320.00
2019-01-22T11:10:49.595Z,1304.00
2019-01-22T11:11:49.602Z,1192.00
2019-01-22T11:12:49.614Z,1104.00
2019-01-22T11:13:49.616Z,1028.00
2019-01-22T11:14:49.622Z,1028.00
2019-01-22T11:15:49.629Z,960.00
2019-01-22T11:16:49.638Z,920.00
2019-01-22T11:17:49.641Z,912.00
2019-01-22T11:18:49.653Z,888.00
2019-01-22T11:19:49.658Z,900.00
2019-01-22T11:20:49.661Z,916.00
2019-01-22T11:21:49.668Z,916.00
2019-01-22T11:22:49.675Z,948.00
2019-01-22T11:23:49.783Z,960.00
2019-01-22T11:24:52.842Z,968.00
2019-01-22T11:25:49.692Z,996.00
2019-01-22T11:26:49.699Z,1028.00
2019-01-22T11:27:49.705Z,1044.00
2019-01-22T11:28:49.710Z,1100.00
2019-01-22T11:29:49.717Z,1152.00
2019-01-22T11:30:49.722Z,1196.00
2019-01-22T11:31:49.730Z,1256.00
2019-01-22T11:32:49.737Z,1296.00
2019-01-22T11:33:49.744Z,1388.00
2019-01-22T11:34:49.750Z,1492.00
2019-01-22T11:35:49.753Z,1560.00
2019-01-22T11:36:49.761Z,1552.00
2019-01-22T11:37:49.765Z,1512.00
2019-01-22T11:38:49.771Z,1552.00
2019-01-22T11:39:49.778Z,1688.00
2019-01-22T11:40:49.787Z,1712.00
2019-01-22T11:41:49.797Z,1776.00
2019-01-22T11:42:49.796Z,1972.00
2019-01-22T11:43:49.803Z,2108.00
2019-01-22T11:44:49.967Z,2256.00
2019-01-22T11:45:49.819Z,2292.00
2019-01-22T11:47:23.029Z,2276.00
2019-01-22T11:47:49.827Z,2304.00
2019-01-22T11:48:49.833Z,2288.00
2019-01-22T11:49:49.894Z,1964.00
2019-01-22T11:50:49.845Z,1944.00
2019-01-22T11:51:49.852Z,1972.00
2019-01-22T11:52:49.859Z,2032.00
2019-01-22T11:53:49.863Z,2244.00
2019-01-22T11:54:49.868Z,2460.00
2019-01-22T11:55:50.596Z,3436.00
2019-01-22T11:56:49.880Z,2196.00
2019-01-22T11:57:49.887Z,2352.00
2019-01-22T11:58:49.893Z,1704.00
2019-01-22T11:59:49.901Z,1556.00
2019-01-22T12:00:49.907Z,1404.00
2019-01-22T12:01:49.912Z,1356.00
2019-01-22T12:02:50.031Z,1308.00
2019-01-22T12:03:49.923Z,1260.00
2019-01-22T12:04:49.929Z,1152.00
2019-01-22T12:05:53.234Z,1104.00
2019-01-22T12:06:49.940Z,1080.00
2019-01-22T12:07:49.947Z,1048.00
2019-01-22T12:08:49.953Z,972.00
2019-01-22T12:09:49.959Z,924.00
2019-01-22T12:10:49.965Z,908.00
2019-01-22T12:11:49.973Z,892.00
2019-01-22T12:12:49.977Z,872.00
2019-01-22T12:13:53.942Z,844.00
2019-01-22T12:14:49.987Z,820.00
2019-01-22T12:15:49.993Z,820.00
2019-01-22T12:16:50.000Z,816.00
2019-01-22T12:17:50.007Z,840.00
2019-01-22T12:18:50.012Z,904.00
2019-01-22T12:19:50.019Z,960.00
2019-01-22T12:20:50.024Z,976.00
2019-01-22T12:21:50.032Z,984.00
2019-01-22T12:22:50.037Z,980.00
2019-01-22T12:23:50.048Z,984.00
2019-01-22T12:24:50.047Z,968.00
2019-01-22T12:25:50.055Z,936.00
2019-01-22T12:26:50.205Z,916.00
2019-01-22T12:27:50.067Z,896.00
2019-01-22T12:28:50.072Z,876.00
2019-01-22T12:29:50.079Z,856.00
2019-01-22T12:30:50.083Z,848.00
2019-01-22T12:31:50.091Z,828.00
2019-01-22T12:32:50.095Z,812.00
2019-01-22T12:33:50.106Z,800.00
2019-01-22T12:34:50.108Z,776.00
2019-01-22T12:35:50.114Z,744.00
2019-01-22T12:36:50.122Z,704.00
2019-01-22T12:37:50.126Z,664.00
2019-01-22T12:38:50.131Z,640.00
2019-01-22T12:39:50.138Z,616.00
2019-01-22T12:40:50.144Z,600.00
2019-01-22T12:41:50.151Z,580.00
2019-01-22T12:42:50.157Z,556.00
2019-01-22T12:43:50.161Z,532.00
2019-01-22T12:44:50.319Z,508.00
2019-01-22T12:45:50.174Z,480.00
2019-01-22T12:46:50.182Z,456.00
2019-01-22T12:47:50.185Z,436.00
2019-01-22T12:48:50.195Z,416.00
2019-01-22T12:49:50.198Z,392.00
2019-01-22T12:50:50.208Z,368.00
2019-01-22T12:51:50.210Z,348.00